MSR905 EGKK-HECA
Flight info
| Callsign | MSR905 |
|---|---|
| Flight time | N/A |
| Altitude | 36000 |
| Route | MIMFO Y312 DVR UL9 KONAN UL607 REMBA DCT LIRSU DCT NONKO DCT VIBOM DCT NOMBO DCT RIDAR DCT LATLO DCT OBEDI DCT PODET DCT LURID DCT DOBOT DCT VEBAR DCT RAMAP DCT VAGEN DCT RAXAD DCT SIN DCT RUGAS UN128 FSK UG18 MES UN139 KUMBI L612 BLT A16 CVO |
| Aircraft | B738/M-SDE2E3FGHIRWXY/LB1 |
Departure
| Time | 2026-05-07 10:28 |
|---|---|
| Airport | London Gatwick Airport (EGKK) |
Arrival
| Time | N/A |
|---|---|
| Airport | Cairo International Airport (HECA) |
| Time | Latitude | Longitude | Altitude | Speed | Heading |
|---|---|---|---|---|---|
| 2026-05-07 10:08 | 51.15328 | -0.17750 | 198 ft | 0 kts | 347° |
| 2026-05-07 10:18 | 51.15327 | -0.17750 | 198 ft | 1 kts | 348° |
| 2026-05-07 10:18 | 51.15313 | -0.17745 | 198 ft | 2 kts | 347° |
| 2026-05-07 10:18 | 51.15298 | -0.17740 | 198 ft | 2 kts | 347° |
| 2026-05-07 10:19 | 51.15283 | -0.17735 | 198 ft | 2 kts | 347° |
| 2026-05-07 10:19 | 51.15270 | -0.17730 | 198 ft | 0 kts | 347° |
| 2026-05-07 10:19 | 51.15263 | -0.17727 | 198 ft | 1 kts | 313° |
| 2026-05-07 10:19 | 51.15259 | -0.17712 | 198 ft | 0 kts | 262° |
| 2026-05-07 10:20 | 51.15261 | -0.17702 | 198 ft | 1 kts | 256° |
| 2026-05-07 10:20 | 51.15261 | -0.17699 | 198 ft | 0 kts | 257° |
| 2026-05-07 10:21 | 51.15259 | -0.17713 | 198 ft | 5 kts | 257° |
| 2026-05-07 10:21 | 51.15239 | -0.17851 | 198 ft | 19 kts | 257° |
| 2026-05-07 10:21 | 51.15202 | -0.18125 | 198 ft | 29 kts | 257° |
| 2026-05-07 10:22 | 51.15153 | -0.18488 | 198 ft | 37 kts | 258° |
| 2026-05-07 10:22 | 51.15097 | -0.18896 | 198 ft | 39 kts | 260° |
| 2026-05-07 10:22 | 51.15054 | -0.19248 | 198 ft | 23 kts | 259° |
| 2026-05-07 10:22 | 51.15041 | -0.19351 | 198 ft | 12 kts | 259° |
| 2026-05-07 10:23 | 51.15035 | -0.19406 | 198 ft | 9 kts | 259° |
| 2026-05-07 10:23 | 51.15012 | -0.19572 | 198 ft | 20 kts | 257° |
| 2026-05-07 10:23 | 51.14973 | -0.19857 | 198 ft | 31 kts | 258° |
| 2026-05-07 10:24 | 51.14920 | -0.20246 | 198 ft | 38 kts | 257° |
| 2026-05-07 10:24 | 51.14882 | -0.20489 | 198 ft | 18 kts | 257° |
| 2026-05-07 10:24 | 51.14849 | -0.20713 | 198 ft | 22 kts | 256° |
| 2026-05-07 10:24 | 51.14820 | -0.20946 | 198 ft | 22 kts | 258° |
| 2026-05-07 10:25 | 51.14804 | -0.21062 | 198 ft | 0 kts | 258° |
| 2026-05-07 10:25 | 51.14795 | -0.21120 | 198 ft | 14 kts | 252° |
| 2026-05-07 10:25 | 51.14735 | -0.21217 | 198 ft | 4 kts | 217° |
| 2026-05-07 10:26 | 51.14722 | -0.21235 | 198 ft | 6 kts | 222° |
| 2026-05-07 10:26 | 51.14661 | -0.21315 | 198 ft | 15 kts | 200° |
| 2026-05-07 10:26 | 51.14540 | -0.21262 | 198 ft | 21 kts | 136° |
| 2026-05-07 10:26 | 51.14525 | -0.21124 | 198 ft | 0 kts | 82° |
| 2026-05-07 10:27 | 51.14550 | -0.20932 | 198 ft | 52 kts | 78° |
| 2026-05-07 10:27 | 51.14682 | -0.19982 | 198 ft | 122 kts | 78° |
| 2026-05-07 10:27 | 51.14914 | -0.18337 | 210 ft | 176 kts | 77° |
| 2026-05-07 10:28 | 51.15212 | -0.16383 | 600 ft | 194 kts | 78° |
| 2026-05-07 10:28 | 51.15495 | -0.14115 | 955 ft | 225 kts | 79° |
| 2026-05-07 10:28 | 51.15828 | -0.11613 | 1686 ft | 241 kts | 78° |
| 2026-05-07 10:28 | 51.16184 | -0.08971 | 2411 ft | 252 kts | 79° |
| 2026-05-07 10:29 | 51.16522 | -0.06484 | 2939 ft | 264 kts | 80° |
| 2026-05-07 10:29 | 51.16765 | -0.04625 | 3414 ft | 268 kts | 83° |
| 2026-05-07 10:29 | 51.16844 | -0.03601 | 3741 ft | 267 kts | 88° |
| 2026-05-07 10:30 | 51.16735 | 0.05113 | 5956 ft | 280 kts | 95° |
| 2026-05-07 10:30 | 51.16701 | 0.07106 | 6505 ft | 281 kts | 95° |
| 2026-05-07 10:30 | 51.16638 | 0.10544 | 7357 ft | 284 kts | 95° |
| 2026-05-07 10:31 | 51.16541 | 0.16585 | 8365 ft | 298 kts | 94° |
| 2026-05-07 10:31 | 51.16563 | 0.20373 | 9102 ft | 306 kts | 92° |
| 2026-05-07 10:31 | 51.16578 | 0.23843 | 9058 ft | 316 kts | 92° |
| 2026-05-07 10:31 | 51.16583 | 0.27308 | 9148 ft | 304 kts | 93° |
| 2026-05-07 10:32 | 51.16582 | 0.30641 | 9515 ft | 309 kts | 93° |
| 2026-05-07 10:32 | 51.16579 | 0.34055 | 9858 ft | 311 kts | 92° |
| 2026-05-07 10:32 | 51.16580 | 0.37513 | 10061 ft | 320 kts | 92° |
| 2026-05-07 10:32 | 51.16601 | 0.41034 | 10073 ft | 314 kts | 90° |
| 2026-05-07 10:33 | 51.17062 | 0.44411 | 10080 ft | 316 kts | 65° |
| 2026-05-07 10:33 | 51.18330 | 0.47046 | 10082 ft | 319 kts | 36° |
| 2026-05-07 10:33 | 51.20323 | 0.48626 | 10085 ft | 316 kts | 11° |
| 2026-05-07 10:33 | 51.22444 | 0.49109 | 10079 ft | 310 kts | 360° |
| 2026-05-07 10:34 | 51.24550 | 0.49712 | 10060 ft | 314 kts | 20° |
| 2026-05-07 10:34 | 51.26310 | 0.51749 | 10184 ft | 317 kts | 53° |
| 2026-05-07 10:34 | 51.27408 | 0.54729 | 10585 ft | 321 kts | 65° |
| 2026-05-07 10:34 | 51.28065 | 0.58101 | 10928 ft | 322 kts | 88° |
| 2026-05-07 10:35 | 51.27805 | 0.61578 | 11319 ft | 326 kts | 108° |
| 2026-05-07 10:35 | 51.27236 | 0.64776 | 11658 ft | 339 kts | 108° |
| 2026-05-07 10:35 | 51.26666 | 0.68327 | 12011 ft | 352 kts | 106° |
| 2026-05-07 10:35 | 51.25941 | 0.73095 | 12470 ft | 368 kts | 107° |
| 2026-05-07 10:36 | 51.25354 | 0.76935 | 12827 ft | 379 kts | 107° |
| 2026-05-07 10:36 | 51.24754 | 0.80865 | 13182 ft | 390 kts | 107° |
| 2026-05-07 10:36 | 51.24111 | 0.85078 | 13553 ft | 400 kts | 107° |
| 2026-05-07 10:36 | 51.23465 | 0.89314 | 13917 ft | 410 kts | 107° |
| 2026-05-07 10:37 | 51.22769 | 0.93862 | 14299 ft | 419 kts | 107° |
| 2026-05-07 10:37 | 51.22081 | 0.98355 | 14668 ft | 427 kts | 107° |
| 2026-05-07 10:37 | 51.21369 | 1.02998 | 15044 ft | 429 kts | 107° |
| 2026-05-07 10:37 | 51.20696 | 1.07372 | 15397 ft | 431 kts | 107° |
| 2026-05-07 10:38 | 51.19966 | 1.12104 | 15779 ft | 433 kts | 107° |
| 2026-05-07 10:38 | 51.19257 | 1.16686 | 16148 ft | 435 kts | 107° |
| 2026-05-07 10:38 | 51.18536 | 1.21329 | 16644 ft | 435 kts | 108° |
| 2026-05-07 10:38 | 51.17816 | 1.25954 | 17216 ft | 436 kts | 108° |
| 2026-05-07 10:39 | 51.17078 | 1.30687 | 17796 ft | 436 kts | 108° |
| 2026-05-07 10:39 | 51.16471 | 1.35358 | 18361 ft | 439 kts | 102° |
| 2026-05-07 10:39 | 51.16145 | 1.40099 | 18928 ft | 441 kts | 98° |
| 2026-05-07 10:39 | 51.15904 | 1.44995 | 19507 ft | 441 kts | 98° |
| 2026-05-07 10:40 | 51.15661 | 1.49769 | 20073 ft | 440 kts | 98° |
| 2026-05-07 10:40 | 51.15417 | 1.54452 | 20562 ft | 441 kts | 98° |
| 2026-05-07 10:40 | 51.15171 | 1.59231 | 21150 ft | 440 kts | 98° |
| 2026-05-07 10:40 | 51.14934 | 1.63902 | 21649 ft | 440 kts | 98° |
| 2026-05-07 10:41 | 51.14724 | 1.68021 | 21980 ft | 443 kts | 99° |
| 2026-05-07 10:41 | 51.14532 | 1.71773 | 22268 ft | 445 kts | 99° |
| 2026-05-07 10:41 | 51.14267 | 1.76950 | 22663 ft | 449 kts | 99° |
| 2026-05-07 10:42 | 51.13818 | 1.85681 | 23323 ft | 453 kts | 99° |
| 2026-05-07 10:42 | 51.13527 | 1.91294 | 23744 ft | 456 kts | 99° |
| 2026-05-07 10:42 | 51.13200 | 1.97561 | 24210 ft | 458 kts | 99° |
| 2026-05-07 10:42 | 51.12951 | 2.02297 | 24562 ft | 460 kts | 99° |
| 2026-05-07 10:43 | 51.12680 | 2.07409 | 24940 ft | 461 kts | 99° |
| 2026-05-07 10:43 | 51.12412 | 2.12432 | 25311 ft | 462 kts | 99° |
| 2026-05-07 10:43 | 51.12140 | 2.17487 | 25683 ft | 463 kts | 99° |
| 2026-05-07 10:43 | 51.11868 | 2.22515 | 26053 ft | 464 kts | 99° |
| 2026-05-07 10:44 | 51.11592 | 2.27551 | 26423 ft | 464 kts | 99° |
| 2026-05-07 10:44 | 51.11312 | 2.32634 | 26796 ft | 464 kts | 99° |
| 2026-05-07 10:44 | 51.11029 | 2.37743 | 27172 ft | 464 kts | 99° |
| 2026-05-07 10:44 | 51.10746 | 2.42807 | 27544 ft | 464 kts | 100° |
| 2026-05-07 10:45 | 51.10460 | 2.47879 | 27918 ft | 463 kts | 100° |
| 2026-05-07 10:45 | 51.10169 | 2.53013 | 28296 ft | 462 kts | 100° |
| 2026-05-07 10:45 | 51.09882 | 2.58004 | 28665 ft | 461 kts | 100° |
| 2026-05-07 10:45 | 51.09488 | 2.63064 | 29042 ft | 456 kts | 106° |
| 2026-05-07 10:46 | 51.08916 | 2.67271 | 29367 ft | 449 kts | 113° |
| 2026-05-07 10:46 | 51.08256 | 2.71103 | 29670 ft | 445 kts | 114° |
| 2026-05-07 10:46 | 51.06868 | 2.78991 | 30297 ft | 439 kts | 114° |
| 2026-05-07 10:47 | 51.05646 | 2.85955 | 30515 ft | 444 kts | 115° |
| 2026-05-07 10:47 | 51.05074 | 2.89146 | 30554 ft | 448 kts | 115° |